createdAt,value
2024-05-09T00:01:57.069Z,99516.41
2024-05-09T00:06:58.763Z,99512.59
2024-05-09T00:12:00.577Z,99508.33
2024-05-09T00:17:02.574Z,99504.46
2024-05-09T00:22:04.394Z,99498.86
2024-05-09T00:27:06.067Z,99498.58
2024-05-09T00:32:08.114Z,99495.92
2024-05-09T00:37:09.844Z,99494.61
2024-05-09T00:42:11.550Z,99491.11
2024-05-09T00:47:13.406Z,99483.03
2024-05-09T00:52:15.332Z,99482.77
2024-05-09T00:57:17.513Z,99490.86
2024-05-09T01:02:20.640Z,99496.28
2024-05-09T01:07:22.395Z,99503.09
2024-05-09T01:12:24.865Z,99505.14
2024-05-09T01:17:27.250Z,99505.98
2024-05-09T01:22:30.946Z,99521.80
2024-05-09T01:27:32.591Z,99518.06
2024-05-09T01:32:34.419Z,99520.54
2024-05-09T01:37:36.318Z,99520.54
2024-05-09T01:42:38.097Z,99515.52
2024-05-09T01:47:39.863Z,99516.48
2024-05-09T01:52:41.679Z,99519.95
2024-05-09T01:57:43.354Z,99516.16
2024-05-09T02:02:45.638Z,99519.14
2024-05-09T02:07:47.499Z,99518.65
2024-05-09T02:12:49.197Z,99518.13
2024-05-09T02:17:51.543Z,99513.58
2024-05-09T02:22:53.549Z,99516.54
2024-05-09T02:27:55.296Z,99519.77
2024-05-09T02:32:57.162Z,99522.81
2024-05-09T02:37:58.942Z,99527.84
2024-05-09T02:43:00.749Z,99522.86
2024-05-09T02:48:02.980Z,99521.35
2024-05-09T02:53:05.092Z,99518.55
2024-05-09T02:58:07.728Z,99519.40
2024-05-09T03:03:13.075Z,99523.23
2024-05-09T03:08:16.782Z,99522.04
2024-05-09T03:13:18.490Z,99522.64
2024-05-09T03:18:20.245Z,99526.81
2024-05-09T03:23:22.065Z,99521.52
2024-05-09T03:28:23.864Z,99526.03
2024-05-09T03:33:25.965Z,99524.44
2024-05-09T03:38:28.081Z,99523.84
2024-05-09T03:43:29.837Z,99523.58
2024-05-09T03:48:35.360Z,99523.89
2024-05-09T03:53:37.210Z,99523.22
2024-05-09T03:58:39.314Z,99524.19
2024-05-09T04:03:41.221Z,99529.58
2024-05-09T04:08:43.081Z,99538.31
2024-05-09T04:13:44.931Z,99538.15
2024-05-09T04:18:46.860Z,99536.88
2024-05-09T04:23:48.823Z,99542.39
2024-05-09T04:28:50.686Z,99541.52
2024-05-09T04:33:52.429Z,99547.06
2024-05-09T04:38:54.236Z,99553.77
2024-05-09T04:43:55.934Z,99555.38
2024-05-09T04:48:57.813Z,99556.96
2024-05-09T04:53:59.531Z,99559.41
2024-05-09T04:59:01.368Z,99560.41
2024-05-09T05:04:03.180Z,99567.41
2024-05-09T05:09:05.076Z,99568.85
2024-05-09T05:14:06.801Z,99567.92
2024-05-09T05:19:12.687Z,99568.29
2024-05-09T05:24:15.928Z,99575.77
2024-05-09T05:29:20.189Z,99582.41
2024-05-09T05:34:22.499Z,99587.17
2024-05-09T05:39:24.231Z,99584.04
2024-05-09T05:44:25.930Z,99577.84
2024-05-09T05:49:27.774Z,99582.30
2024-05-09T05:54:29.558Z,99585.92
2024-05-09T05:59:31.328Z,99583.21
2024-05-09T06:04:33.204Z,99583.25
2024-05-09T06:09:35.000Z,99577.59
2024-05-09T06:14:36.713Z,99577.63
2024-05-09T06:19:38.488Z,99581.55
2024-05-09T06:24:40.196Z,99583.99
2024-05-09T06:29:41.919Z,99589.85
2024-05-09T06:34:43.885Z,99586.30
2024-05-09T06:39:46.455Z,99588.64
2024-05-09T06:44:48.154Z,99592.73
2024-05-09T06:49:49.874Z,99583.44
2024-05-09T06:54:51.555Z,99583.07
2024-05-09T06:59:53.320Z,99585.69
2024-05-09T07:04:55.175Z,99582.38
2024-05-09T07:09:57.003Z,99573.80
2024-05-09T07:14:58.714Z,99573.45
2024-05-09T07:20:00.425Z,99577.30
2024-05-09T07:25:02.611Z,99574.02
2024-05-09T07:30:07.093Z,99582.37
2024-05-09T07:35:08.937Z,99582.06
2024-05-09T07:40:17.675Z,99583.94
2024-05-09T07:45:43.322Z,99585.37
2024-05-09T07:55:53.162Z,99574.58
2024-05-09T08:00:55.216Z,99573.30
2024-05-09T08:05:57.159Z,99571.31
2024-05-09T08:10:58.803Z,99577.89
2024-05-09T08:16:00.859Z,99572.48
2024-05-09T08:21:03.149Z,99571.73
2024-05-09T08:26:05.400Z,99574.00
2024-05-09T08:31:07.544Z,99572.48
2024-05-09T08:36:09.647Z,99572.93
2024-05-09T08:41:13.892Z,99574.04
2024-05-09T08:46:18.442Z,99575.81
2024-05-09T08:51:20.226Z,99576.48
2024-05-09T08:56:28.217Z,99578.33
2024-05-09T09:01:32.018Z,99575.40
2024-05-09T09:06:35.210Z,99573.08
2024-05-09T09:11:37.083Z,99572.41
2024-05-09T09:16:38.818Z,99567.39
2024-05-09T09:21:40.535Z,99571.08
2024-05-09T09:26:44.978Z,99567.14
2024-05-09T09:31:57.063Z,99562.20
2024-05-09T09:37:04.527Z,99558.30
2024-05-09T09:42:06.386Z,99557.38
2024-05-09T09:47:09.342Z,99552.06
2024-05-09T09:52:13.389Z,99553.97
2024-05-09T09:57:16.081Z,99553.28
2024-05-09T10:02:17.924Z,99554.63
2024-05-09T10:07:21.419Z,99553.77
2024-05-09T10:12:23.898Z,99553.13
2024-05-09T10:17:25.764Z,99547.16
2024-05-09T10:22:28.483Z,99549.86
2024-05-09T10:27:30.926Z,99550.23
2024-05-09T10:32:40.705Z,99539.60
2024-05-09T10:37:42.860Z,99533.38
2024-05-09T10:42:44.769Z,99522.52
2024-05-09T10:47:46.668Z,99525.43
2024-05-09T10:52:48.461Z,99523.10
2024-05-09T10:57:50.149Z,99515.05
2024-05-09T11:02:51.984Z,99509.86
2024-05-09T11:07:53.912Z,99513.04
2024-05-09T11:12:55.688Z,99509.52
2024-05-09T11:17:57.522Z,99502.83
2024-05-09T11:22:59.298Z,99499.56
2024-05-09T11:28:02.157Z,99501.70
2024-05-09T11:33:04.203Z,99496.80
2024-05-09T11:38:05.896Z,99491.91
2024-05-09T11:43:07.765Z,99488.35
2024-05-09T11:48:09.672Z,99491.02
2024-05-09T11:53:12.304Z,99481.16
2024-05-09T11:58:16.932Z,99484.35
2024-05-09T12:03:18.929Z,99489.59
2024-05-09T12:08:20.736Z,99481.52
2024-05-09T12:13:22.478Z,99483.13
2024-05-09T12:18:24.531Z,99485.52
2024-05-09T12:23:26.306Z,99470.31
2024-05-09T12:28:27.997Z,99457.23
2024-05-09T12:33:29.830Z,99455.20
2024-05-09T12:38:31.642Z,99453.31
2024-05-09T12:43:33.421Z,99460.33
2024-05-09T12:48:35.439Z,99449.64
2024-05-09T12:53:37.454Z,99442.50
2024-05-09T12:58:39.226Z,99434.08
2024-05-09T13:03:41.057Z,99423.80
2024-05-09T13:08:43.059Z,99417.58
2024-05-09T13:13:44.804Z,99414.65
2024-05-09T13:18:46.529Z,99418.39
2024-05-09T13:23:48.365Z,99415.46
2024-05-09T13:28:49.988Z,99411.70
2024-05-09T13:33:51.978Z,99404.45
2024-05-09T13:38:54.486Z,99398.57
2024-05-09T13:43:56.418Z,99394.50
2024-05-09T13:48:58.351Z,99386.06
2024-05-09T13:54:00.028Z,99374.85
2024-05-09T13:59:01.750Z,99378.41
2024-05-09T14:04:03.720Z,99376.63
2024-05-09T14:09:05.531Z,99377.92
2024-05-09T14:14:07.220Z,99370.02
2024-05-09T14:19:09.417Z,99365.19
2024-05-09T14:24:11.147Z,99364.02
2024-05-09T14:29:12.838Z,99367.80
2024-05-09T14:34:14.760Z,99364.05
2024-05-09T14:39:16.671Z,99364.30
2024-05-09T14:44:18.373Z,99358.91
2024-05-09T14:49:20.264Z,99357.29
2024-05-09T14:54:22.110Z,99354.31
2024-05-09T14:59:23.823Z,99350.55
2024-05-09T15:04:27.549Z,99343.04
2024-05-09T15:09:35.327Z,99344.20
2024-05-09T15:14:37.605Z,99343.14
2024-05-09T15:19:39.519Z,99343.30
2024-05-09T15:24:42.198Z,99342.80
2024-05-09T15:29:44.015Z,99341.60
2024-05-09T15:34:45.975Z,99340.47
2024-05-09T15:39:48.172Z,99340.52
2024-05-09T15:44:52.802Z,99335.70
2024-05-09T15:49:54.804Z,99333.79
2024-05-09T15:54:56.714Z,99333.41
2024-05-09T15:59:58.667Z,99332.48
2024-05-09T16:05:00.893Z,99327.51
2024-05-09T16:10:04.156Z,99326.98
2024-05-09T16:15:07.523Z,99322.74
2024-05-09T16:20:14.981Z,99318.82
2024-05-09T16:25:19.862Z,99311.94
2024-05-09T16:30:28.270Z,99311.70
2024-05-09T16:35:36.879Z,99312.45
2024-05-09T16:40:40.879Z,99311.11
2024-05-09T16:45:44.686Z,99309.37
2024-05-09T16:50:46.709Z,99308.73
2024-05-09T16:55:48.599Z,99307.78
2024-05-09T17:00:50.728Z,99304.04
2024-05-09T17:05:52.921Z,99304.14
2024-05-09T17:10:55.395Z,99308.65
2024-05-09T17:15:57.296Z,99310.80
2024-05-09T17:20:58.951Z,99308.32
2024-05-09T17:26:00.758Z,99307.01
2024-05-09T17:31:02.455Z,99307.98
2024-05-09T17:36:04.460Z,99313.56
2024-05-09T17:41:06.197Z,99314.39
2024-05-09T17:46:08.104Z,99311.06
2024-05-09T17:51:09.929Z,99319.17
2024-05-09T17:56:11.741Z,99319.42
2024-05-09T18:01:13.814Z,99320.30
2024-05-09T18:06:16.495Z,99327.03
2024-05-09T18:11:18.414Z,99327.84
2024-05-09T18:16:20.724Z,99331.36
2024-05-09T18:21:22.511Z,99332.58
2024-05-09T18:26:24.178Z,99336.65
2024-05-09T18:31:25.947Z,99339.36
2024-05-09T18:36:28.116Z,99344.78
2024-05-09T18:41:29.751Z,99351.29
2024-05-09T18:46:31.848Z,99351.58
2024-05-09T18:51:33.633Z,99355.30
2024-05-09T18:56:37.316Z,99366.98
2024-05-09T19:01:41.866Z,99369.27
2024-05-09T19:06:45.315Z,99377.36
2024-05-09T19:11:49.641Z,99388.98
2024-05-09T19:16:51.408Z,99387.66
2024-05-09T19:21:53.669Z,99392.58
2024-05-09T19:26:56.322Z,99399.27
2024-05-09T19:31:58.073Z,99400.05
2024-05-09T19:37:01.284Z,99405.35
2024-05-09T19:42:03.199Z,99407.92
2024-05-09T19:47:05.013Z,99409.06
2024-05-09T19:52:06.711Z,99408.96
2024-05-09T19:57:08.451Z,99409.91
2024-05-09T20:02:10.309Z,99413.77
2024-05-09T20:07:12.781Z,99416.25
2024-05-09T20:12:14.674Z,99420.31
2024-05-09T20:17:16.444Z,99422.39
2024-05-09T20:22:18.337Z,99429.09
2024-05-09T20:27:20.095Z,99428.01
2024-05-09T20:32:22.062Z,99428.06
2024-05-09T20:37:24.606Z,99429.18
2024-05-09T20:42:26.366Z,99428.98
2024-05-09T20:47:28.265Z,99428.67
2024-05-09T20:52:30.144Z,99434.30
2024-05-09T20:57:32.174Z,99432.98
2024-05-09T21:02:37.898Z,99431.48
2024-05-09T21:07:39.967Z,99427.19
2024-05-09T21:12:41.788Z,99431.52
2024-05-09T21:17:43.679Z,99433.88
2024-05-09T21:22:46.443Z,99430.98
2024-05-09T21:27:48.712Z,99427.81
2024-05-09T21:32:50.667Z,99426.98
2024-05-09T21:37:52.333Z,99424.39
2024-05-09T21:42:55.101Z,99425.07
2024-05-09T21:47:57.226Z,99424.91
2024-05-09T21:52:59.093Z,99423.31
2024-05-09T21:58:00.995Z,99422.69
2024-05-09T22:03:02.882Z,99422.05
2024-05-09T22:08:05.002Z,99420.37
2024-05-09T22:13:08.334Z,99423.55
2024-05-09T22:18:11.314Z,99421.70
2024-05-09T22:23:15.432Z,99419.50
2024-05-09T22:28:17.375Z,99418.05
2024-05-09T22:33:19.308Z,99415.27
2024-05-09T22:38:21.019Z,99417.19
2024-05-09T22:43:24.649Z,99415.23
2024-05-09T22:48:27.114Z,99415.63
2024-05-09T22:53:28.853Z,99413.77
2024-05-09T22:58:30.900Z,99420.61
2024-05-09T23:03:32.921Z,99417.40
2024-05-09T23:08:34.849Z,99414.35
2024-05-09T23:13:36.898Z,99416.44
2024-05-09T23:18:38.786Z,99411.59
2024-05-09T23:23:42.000Z,99407.16
2024-05-09T23:28:43.688Z,99404.08
2024-05-09T23:33:46.860Z,99406.00
2024-05-09T23:38:49.081Z,99410.54
2024-05-09T23:43:52.470Z,99410.38
2024-05-09T23:48:54.277Z,99408.80
2024-05-09T23:53:56.018Z,99401.89
2024-05-09T23:58:57.643Z,99396.02
